Terminal Aerodrome Forecast
Issued by NWS

Home | Current Version | Previous Version | Text Only | Print | Product List | Glossary On
Versions: 1 2 3 4 5 6 7 8 9 10 11 12 13 14 15 16 17 18 19 20
000
FTAK31 PAJN 172300
TAFAYA
TAF
PAYA 172331Z 1800/1824 10006KT 6SM -SHRA SCT025 BKN035 OVC060
      TEMPO 1800/1802 BKN025 OVC035
     FM180300 09005KT P6SM SCT020 BKN060
     FM181000 08005KT P6SM SCT005 BKN040
     FM181700 08008KT P6SM SCT030 OVC040
      AMD LTD TO CLD VIS AND WIND 1801/1810=

USA.gov is the U.S. government's official web portal to all federal, state and local government web resources and services.